Bookmark and Share
Track history (hours):
 

Ernest Campbell

More information available from US FCC via Universal Licensing System and Coast Guard Vessel Documentation Center.

Last reported at 2014-Apr-16 10:17 UTC. Time now 2014-Apr-16 10:44 UTC.
Position N 33°44' W 118°16'.

Length 33 m; draft 15.3 m.

Type: Tow > 200 m length. MMSI: 366882320.

NotesDate/timePositionNaut miles runAvg speedWind from/ knotsBaromVisibWave heightAir tempDewpointWater temp
2014-Apr-16 10:17N 33°44' W 118°16'0 0.0
2014-Apr-16 08:29N 33°44' W 118°16'0 0.0
2014-Apr-16 07:32N 33°44' W 118°16'0 0.0
2014-Apr-16 05:29N 33°44' W 118°16'0 0.0
2014-Apr-16 04:32N 33°44' W 118°16'0 0.0
2014-Apr-16 03:32N 33°44' W 118°16'0 0.0
2014-Apr-16 02:32N 33°44' W 118°16'0 0.0
2014-Apr-16 01:32N 33°44' W 118°16'0 0.0
2014-Apr-16 00:29N 33°44' W 118°16'0 0.0
2014-Apr-15 23:29N 33°44' W 118°16'0 0.0
2014-Apr-15 22:32N 33°44' W 118°16'0 0.0
2014-Apr-15 21:32N 33°44' W 118°16'0 0.0
2014-Apr-15 20:32N 33°44' W 118°16'0 0.0
2014-Apr-15 19:32N 33°44' W 118°16'0 0.0
2014-Apr-15 18:32N 33°44' W 118°16'0 0.0
2014-Apr-15 16:29N 33°44' W 118°16'0 0.0
2014-Apr-15 15:32N 33°44' W 118°16'0 0.0
2014-Apr-15 14:23N 33°44' W 118°16'0 0.0
2014-Apr-15 12:32N 33°44' W 118°16'0 0.0
2014-Apr-15 10:32N 33°44' W 118°16'0 0.0
2014-Apr-15 09:32N 33°44' W 118°16'0 0.0
2014-Apr-15 08:32N 33°44' W 118°16'0 0.0
2014-Apr-15 07:32N 33°44' W 118°16'0 0.0
2014-Apr-15 06:32N 33°44' W 118°16'0 0.0
2014-Apr-15 05:32N 33°44' W 118°16'0 0.0
2014-Apr-15 00:32N 33°44' W 118°16'0 0.0
2014-Apr-14 23:32N 33°44' W 118°16'0 0.0
2014-Apr-14 22:32N 33°44' W 118°16'0 0.0
2014-Apr-14 21:32N 33°44' W 118°16'0 0.0
2014-Apr-14 19:31N 33°44' W 118°16'0 0.0
2014-Apr-14 18:31N 33°44' W 118°16'  
2014-Apr-12 05:29N 33°44' W 118°16'0 0.0
2014-Apr-12 04:26N 33°44' W 118°16'0 0.0
2014-Apr-12 03:23N 33°44' W 118°16'0 0.0
2014-Apr-12 02:33N 33°44' W 118°16'0 0.0
2014-Apr-12 01:33N 33°44' W 118°16'0 0.0
2014-Apr-12 00:33N 33°44' W 118°16'0 0.1
2014-Apr-11 23:33N 33°44' W 118°16'1 0.5
2014-Apr-11 22:33N 33°43' W 118°16'3 3.1
2014-Apr-11 21:33N 33°45' W 118°13'0 0.0
2014-Apr-11 17:10N 33°45' W 118°13'0 0.0
2014-Apr-11 16:33N 33°45' W 118°13'0 0.0
2014-Apr-11 13:28N 33°45' W 118°13'0 0.0
2014-Apr-11 12:33N 33°45' W 118°13'0 0.0
2014-Apr-11 11:33N 33°45' W 118°13'0 0.0
2014-Apr-11 10:33N 33°45' W 118°13'0 0.0
2014-Apr-11 09:33N 33°45' W 118°13'0 0.0
2014-Apr-11 08:26N 33°45' W 118°13'0 0.0
2014-Apr-11 07:33N 33°45' W 118°13'0 0.0
2014-Apr-11 06:33N 33°45' W 118°13'1 1.2
2014-Apr-11 05:33N 33°44' W 118°12'3 2.6
2014-Apr-11 04:33N 33°41' W 118°11'5 5.4
2014-Apr-11 03:33N 33°37' W 118°14'5 5.2
2014-Apr-11 02:33N 33°36' W 118°21'6 6.0
2014-Apr-11 01:32N 33°38' W 118°27'6 6.0
2014-Apr-11 00:32N 33°41' W 118°33'6 5.9
2014-Apr-10 23:33N 33°44' W 118°39'35 6.7
2014-Apr-10 18:17N 34°02' W 119°16'59 6.5
2014-Apr-10 09:13N 34°18' W 120°25'4 6.3
2014-Apr-10 08:33N 34°19' W 120°30'6 6.4
2014-Apr-10 07:33N 34°21' W 120°37'7 7.2
2014-Apr-10 06:33N 34°23' W 120°46'7 6.7
2014-Apr-10 05:33N 34°25' W 120°53'7 6.6
2014-Apr-10 04:31N 34°30' W 120°58'6 6.7
2014-Apr-10 03:33N 34°36' W 121°02'7 6.6
2014-Apr-10 02:33N 34°41' W 121°06'7 6.7
2014-Apr-10 01:33N 34°47' W 121°11'6 6.5
2014-Apr-10 00:33N 34°53' W 121°15'20 6.4
2014-Apr-09 21:23N 35°09' W 121°29'6 6.7
2014-Apr-09 20:30N 35°14' W 121°32'6 6.8
2014-Apr-09 19:33N 35°20' W 121°36'7 6.9
2014-Apr-09 18:33N 35°26' W 121°40'7 6.7
2014-Apr-09 17:33N 35°31' W 121°45'6 6.4
2014-Apr-09 16:33N 35°37' W 121°49'6 6.4
2014-Apr-09 15:33N 35°42' W 121°53'6 6.3
2014-Apr-09 14:33N 35°48' W 121°57'6 6.2
2014-Apr-09 13:33N 35°53' W 122°01'6 6.3
2014-Apr-09 12:33N 35°58' W 122°06'6 6.2
2014-Apr-09 11:33N 36°03' W 122°10'6 6.3
2014-Apr-09 10:33N 36°08' W 122°15'6 6.3
2014-Apr-09 09:33N 36°14' W 122°18'7 6.6
2014-Apr-09 08:33N 36°20' W 122°20'7 6.7
2014-Apr-09 07:33N 36°26' W 122°23'6 6.4
2014-Apr-09 06:33N 36°32' W 122°26'6 6.0
2014-Apr-09 05:33N 36°38' W 122°29'6 5.8
2014-Apr-09 04:33N 36°43' W 122°32'6 6.0
2014-Apr-09 03:33N 36°49' W 122°34'6 6.3
2014-Apr-09 02:33N 36°55' W 122°36'7 6.2
2014-Apr-09 01:26N 37°01' W 122°40'6 6.7
2014-Apr-09 00:33N 37°07' W 122°42'7 6.7
2014-Apr-08 23:32N 37°14' W 122°44'7 6.5
2014-Apr-08 22:28N 37°21' W 122°44'6 6.4
2014-Apr-08 21:33N 37°26' W 122°44'6 6.4
2014-Apr-08 20:32N 37°33' W 122°44'7 6.3
2014-Apr-08 19:30N 37°39' W 122°43'5 5.6
2014-Apr-08 18:33N 37°44' W 122°40'6 6.3
2014-Apr-08 17:33N 37°48' W 122°34'7 7.5
2014-Apr-08 16:33N 37°50' W 122°25'6 5.9
2014-Apr-08 15:33N 37°48' W 122°18'1 0.5
2014-Apr-08 14:33N 37°48' W 122°17'0 0.0
2014-Apr-08 13:33N 37°48' W 122°17'0 0.0
2014-Apr-08 12:33N 37°48' W 122°17'0 0.0
2014-Apr-08 11:33N 37°48' W 122°17'0 0.0
2014-Apr-08 10:33N 37°48' W 122°17'0 0.0
2014-Apr-08 09:34N 37°48' W 122°17'0 0.0
2014-Apr-08 08:33N 37°48' W 122°17'0 0.0
2014-Apr-08 07:33N 37°48' W 122°17'0 0.0
2014-Apr-08 06:34N 37°48' W 122°17'0 0.0
2014-Apr-08 05:33N 37°48' W 122°17'0 0.0
2014-Apr-08 04:33N 37°48' W 122°17'0 0.0
2014-Apr-08 03:33N 37°48' W 122°17'0 0.0
2014-Apr-08 02:33N 37°48' W 122°17'0 0.0
2014-Apr-08 01:33N 37°48' W 122°17'0 0.0
2014-Apr-08 00:33N 37°48' W 122°17'0 0.0
2014-Apr-07 23:33N 37°48' W 122°17'0 0.0
2014-Apr-07 22:33N 37°48' W 122°17'0 0.0
2014-Apr-07 21:33N 37°48' W 122°17'0 0.0
2014-Apr-07 20:33N 37°48' W 122°17'0 0.0
2014-Apr-07 19:33N 37°48' W 122°17'0 0.0
2014-Apr-07 17:33N 37°48' W 122°17'0 0.0
2014-Apr-07 16:33N 37°48' W 122°17'0 0.0
2014-Apr-07 15:33N 37°48' W 122°17'0 0.0
2014-Apr-07 14:33N 37°48' W 122°17'0 0.0
2014-Apr-07 13:33N 37°48' W 122°17'0 0.0
2014-Apr-07 12:33N 37°48' W 122°17'0 0.0
2014-Apr-07 11:33N 37°48' W 122°17'0 0.0
2014-Apr-07 10:33N 37°48' W 122°17'0 0.0
2014-Apr-07 09:33N 37°48' W 122°17'0 0.0
2014-Apr-07 08:33N 37°48' W 122°17'0 0.0
2014-Apr-07 07:33N 37°48' W 122°17'0 0.0
2014-Apr-07 06:33N 37°48' W 122°17'0 0.0
2014-Apr-07 05:33N 37°48' W 122°17'4 3.7
2014-Apr-07 04:33N 37°48' W 122°22'5 5.3
2014-Apr-07 03:34N 37°53' W 122°25'5 5.2
2014-Apr-07 02:33N 37°58' W 122°27'5 4.8
2014-Apr-07 01:33N 38°01' W 122°23'4 4.5
2014-Apr-07 00:33N 38°03' W 122°18'7 5.5
2014-Apr-06 23:18N 38°02' W 122°09'  

Dump ship's entire track history

sailing weather and tide predictions

Ernest Campbell — WDB3005 — position and weather